Time;durP1;ratioP1;P1;durP2;ratioP2;P2;SDS_P1;SDS_P2;PMS_P1;PMS_P2;Temp;Humidity;BMP_temperature;BMP_pressure;BME280_temperature;BME280_humidity;BME280_pressure;Samples;Min_cycle;Max_cycle;Signal;HPM_P1;HPM_P2
2021/03/13 00:01:01;;;;;;;0.83;0.50;;;8.30;99.90;;;;;;5037605;28;20716;-60
2021/03/13 00:03:27;;;;;;;0.43;0.30;;;8.20;99.90;;;;;;5040061;28;20564;-61
2021/03/13 00:05:54;;;;;;;0.90;0.57;;;8.30;99.90;;;;;;5042714;28;20210;-62
2021/03/13 00:08:20;;;;;;;1.53;0.80;;;8.30;99.90;;;;;;5041380;28;20217;-60
2021/03/13 00:10:47;;;;;;;0.93;0.43;;;8.20;99.90;;;;;;5041015;28;20221;-60
2021/03/13 00:13:15;;;;;;;0.87;0.50;;;8.20;99.90;;;;;;5041306;28;20679;-61
2021/03/13 00:15:42;;;;;;;1.63;0.90;;;8.20;99.90;;;;;;5041898;28;20206;-59
2021/03/13 00:18:10;;;;;;;2.83;0.80;;;8.20;99.90;;;;;;5041802;28;20202;-61
2021/03/13 00:20:38;;;;;;;2.50;1.10;;;8.20;99.90;;;;;;5041613;28;20206;-60
2021/03/13 00:23:05;;;;;;;1.03;0.60;;;8.00;99.90;;;;;;5040753;28;20252;-61
2021/03/13 00:25:32;;;;;;;1.20;0.50;;;8.10;99.90;;;;;;5040228;28;20260;-61
2021/03/13 00:27:59;;;;;;;2.03;0.60;;;8.20;99.90;;;;;;5040113;28;20263;-61
2021/03/13 00:30:28;;;;;;;2.03;0.70;;;8.10;99.90;;;;;;5040711;28;20257;-61
2021/03/13 00:32:56;;;;;;;2.37;0.60;;;8.00;99.90;;;;;;5040396;28;20206;-60
2021/03/13 00:35:24;;;;;;;0.93;0.50;;;8.10;99.90;;;;;;5039741;28;20213;-60
2021/03/13 00:37:51;;;;;;;0.83;0.50;;;8.10;99.90;;;;;;5035380;28;20213;-59
2021/03/13 00:40:20;;;;;;;2.03;0.43;;;8.00;99.90;;;;;;5034231;28;20606;-59
2021/03/13 00:42:46;;;;;;;1.53;0.53;;;7.90;99.90;;;;;;5033927;28;20210;-59
2021/03/13 00:45:16;;;;;;;0.70;0.40;;;7.90;99.90;;;;;;5033707;28;20642;-60
2021/03/13 00:47:44;;;;;;;1.20;0.53;;;7.90;99.90;;;;;;5033987;28;20210;-61
2021/03/13 00:50:12;;;;;;;1.93;0.47;;;8.00;99.90;;;;;;5033795;28;20742;-59
2021/03/13 00:52:39;;;;;;;1.10;0.60;;;8.00;99.90;;;;;;5033896;28;20670;-59
2021/03/13 00:55:07;;;;;;;0.93;0.57;;;7.90;99.90;;;;;;5034055;28;20258;-61
2021/03/13 00:57:34;;;;;;;1.90;0.50;;;8.00;99.90;;;;;;5033887;28;20210;-62
2021/03/13 01:00:01;;;;;;;0.90;0.50;;;8.00;99.90;;;;;;5033427;28;20706;-59
2021/03/13 01:02:27;;;;;;;1.83;0.40;;;8.10;99.90;;;;;;5033691;28;20675;-59
2021/03/13 01:04:54;;;;;;;2.00;0.80;;;8.10;99.90;;;;;;5033853;28;20230;-62
2021/03/13 01:07:20;;;;;;;1.03;0.57;;;8.10;99.90;;;;;;5034228;28;20582;-59
2021/03/13 01:09:47;;;;;;;2.20;0.67;;;8.20;99.90;;;;;;5033608;28;20231;-60
2021/03/13 01:12:13;;;;;;;1.80;0.40;;;8.20;99.90;;;;;;5033611;28;20206;-62
2021/03/13 01:14:40;;;;;;;1.10;0.80;;;8.40;99.90;;;;;;5032833;28;20784;-60
2021/03/13 01:17:06;;;;;;;1.30;0.60;;;8.40;99.90;;;;;;5033426;28;20217;-61
2021/03/13 01:19:32;;;;;;;1.13;0.43;;;8.50;99.90;;;;;;5033457;28;20231;-60
2021/03/13 01:22:00;;;;;;;1.63;0.70;;;8.30;99.90;;;;;;5033760;28;20202;-60
2021/03/13 01:24:26;;;;;;;2.63;0.70;;;8.30;99.90;;;;;;5033353;28;20226;-60
2021/03/13 01:26:52;;;;;;;0.93;0.30;;;8.40;99.90;;;;;;5033309;28;20206;-60
2021/03/13 01:29:18;;;;;;;1.73;0.70;;;8.40;99.90;;;;;;5032935;28;20284;-60
2021/03/13 01:31:45;;;;;;;0.67;0.40;;;8.30;99.90;;;;;;5033063;28;20209;-62
2021/03/13 01:34:11;;;;;;;0.60;0.40;;;8.30;99.90;;;;;;5033241;28;20245;-60
2021/03/13 01:36:38;;;;;;;0.50;0.20;;;8.40;99.90;;;;;;5032950;28;20586;-59
2021/03/13 01:39:06;;;;;;;1.10;0.30;;;8.50;99.90;;;;;;5032982;28;20647;-60
2021/03/13 01:41:32;;;;;;;1.70;0.50;;;8.50;99.90;;;;;;5032969;28;20214;-63
2021/03/13 01:43:58;;;;;;;0.50;0.37;;;8.50;99.90;;;;;;5033097;28;20712;-60
2021/03/13 01:46:26;;;;;;;0.40;0.30;;;8.40;99.90;;;;;;5033117;28;20207;-60
2021/03/13 01:48:53;;;;;;;0.33;0.30;;;8.30;99.90;;;;;;5032790;28;20253;-63
2021/03/13 01:51:19;;;;;;;1.50;0.70;;;8.30;99.90;;;;;;5032979;28;20502;-59
2021/03/13 01:53:46;;;;;;;0.77;0.43;;;8.20;99.90;;;;;;5032786;28;20202;-60
2021/03/13 01:56:16;;;;;;;0.70;0.40;;;8.30;99.90;;;;;;5033200;28;20206;-59
2021/03/13 01:58:42;;;;;;;0.37;0.23;;;8.20;99.90;;;;;;5032883;28;20234;-60
2021/03/13 02:01:09;;;;;;;0.30;0.30;;;8.20;99.90;;;;;;5032705;28;20206;-60
2021/03/13 02:03:36;;;;;;;0.70;0.43;;;8.10;99.90;;;;;;5032714;28;20226;-60
2021/03/13 02:06:03;;;;;;;1.57;0.43;;;8.00;99.90;;;;;;5032541;28;20694;-60
2021/03/13 02:08:39;;;;;;;1.77;0.73;;;8.10;99.90;;;;;;5032152;28;20206;-59
2021/03/13 02:11:13;;;;;;;1.30;0.50;;;8.00;99.90;;;;;;5032425;28;20748;-59
2021/03/13 02:13:50;;;;;;;30.73;26.20;;;8.00;99.90;;;;;;5032224;28;20682;-59
2021/03/13 02:16:25;;;;;;;2.53;0.90;;;7.90;99.90;;;;;;5032575;28;20209;-59
2021/03/13 02:19:08;;;;;;;2.50;1.80;;;7.70;99.90;;;;;;5032469;28;20233;-60
2021/03/13 02:21:40;;;;;;;2.60;0.93;;;7.60;99.90;;;;;;5032686;28;20213;-63
2021/03/13 02:24:39;;;;;;;2.63;0.73;;;7.60;99.90;;;;;;5032556;28;20226;-60
2021/03/13 02:27:12;;;;;;;0.80;0.60;;;7.50;99.90;;;;;;5031279;28;20233;-59
2021/03/13 02:29:45;;;;;;;1.23;0.70;;;7.50;99.90;;;;;;5032086;28;20514;-59
2021/03/13 02:32:21;;;;;;;2.07;0.63;;;7.50;99.90;;;;;;5032064;28;20235;-63
2021/03/13 02:34:50;;;;;;;1.13;0.50;;;7.60;99.90;;;;;;5032097;28;20275;-61
2021/03/13 02:37:22;;;;;;;2.10;0.73;;;7.60;99.90;;;;;;5032070;28;20202;-60
2021/03/13 02:39:51;;;;;;;1.77;0.53;;;7.60;99.90;;;;;;5031789;28;20230;-59
2021/03/13 02:42:19;;;;;;;1.07;0.60;;;7.60;99.90;;;;;;5031765;28;20202;-60
2021/03/13 02:44:47;;;;;;;2.17;0.70;;;7.50;99.90;;;;;;5031607;28;20760;-60
2021/03/13 02:47:15;;;;;;;3.40;0.80;;;7.50;99.90;;;;;;5031874;28;20202;-60
2021/03/13 02:49:45;;;;;;;2.17;1.00;;;7.60;99.90;;;;;;5031751;28;20230;-62
2021/03/13 02:52:12;;;;;;;3.03;1.10;;;7.70;99.90;;;;;;5031700;28;20239;-62
2021/03/13 02:54:45;;;;;;;4.37;0.90;;;7.80;99.90;;;;;;5031587;28;20202;-60
2021/03/13 02:57:14;;;;;;;2.57;0.90;;;7.80;99.90;;;;;;5031729;28;21020;-60
2021/03/13 02:59:41;;;;;;;3.27;0.90;;;7.80;99.90;;;;;;5031847;28;20234;-61
2021/03/13 03:02:09;;;;;;;1.43;0.50;;;7.70;99.90;;;;;;5031852;28;20295;-61
2021/03/13 03:04:38;;;;;;;2.07;1.00;;;7.80;99.90;;;;;;5031473;28;20226;-61
2021/03/13 03:07:06;;;;;;;3.30;1.00;;;7.90;99.90;;;;;;5031882;28;20627;-61
2021/03/13 03:09:33;;;;;;;2.10;0.90;;;7.90;99.90;;;;;;5031629;28;20235;-61
2021/03/13 03:12:02;;;;;;;2.63;0.97;;;7.90;99.90;;;;;;5031247;28;20666;-60
2021/03/13 03:14:29;;;;;;;1.97;0.70;;;7.90;99.90;;;;;;5031376;28;20206;-61
2021/03/13 03:16:59;;;;;;;2.90;0.90;;;8.00;99.90;;;;;;5031402;28;20209;-61
2021/03/13 03:19:27;;;;;;;2.07;0.63;;;8.00;99.90;;;;;;5031362;28;20230;-61
2021/03/13 03:21:54;;;;;;;2.47;0.70;;;8.10;99.90;;;;;;5031132;28;20203;-60
2021/03/13 03:24:20;;;;;;;6.10;1.00;;;8.10;99.90;;;;;;5031424;28;20256;-61
2021/03/13 03:26:46;;;;;;;1.63;0.80;;;8.00;99.90;;;;;;5031231;28;20214;-61
2021/03/13 03:29:13;;;;;;;3.30;0.97;;;8.00;99.90;;;;;;5031142;28;20285;-61
2021/03/13 03:31:39;;;;;;;3.27;0.80;;;8.10;99.90;;;;;;5031411;28;20202;-61
2021/03/13 03:34:05;;;;;;;3.37;0.80;;;8.20;99.90;;;;;;5030994;28;20229;-61
2021/03/13 03:36:33;;;;;;;3.27;0.90;;;8.30;99.90;;;;;;5031197;28;20253;-60
2021/03/13 03:39:00;;;;;;;2.60;0.83;;;8.30;99.90;;;;;;5031098;28;20288;-61
2021/03/13 03:41:29;;;;;;;3.30;0.90;;;8.40;99.90;;;;;;5031191;28;20498;-60
2021/03/13 03:44:01;;;;;;;1.87;0.70;;;8.40;99.90;;;;;;5031098;28;20702;-60
2021/03/13 03:46:27;;;;;;;3.47;1.13;;;8.30;99.90;;;;;;5031332;28;20210;-61
2021/03/13 03:48:55;;;;;;;2.87;0.90;;;8.40;99.90;;;;;;5031077;28;20709;-61
2021/03/13 03:51:28;;;;;;;3.47;1.00;;;8.50;99.90;;;;;;5031199;28;20212;-61
2021/03/13 03:53:55;;;;;;;2.60;1.03;;;8.70;99.90;;;;;;5031082;28;20198;-61
2021/03/13 03:56:24;;;;;;;2.93;1.10;;;8.80;99.90;;;;;;5031286;28;20213;-61
2021/03/13 03:58:50;;;;;;;5.10;0.90;;;8.80;99.90;;;;;;5030493;28;20745;-61
2021/03/13 04:01:18;;;;;;;3.07;0.97;;;8.90;99.90;;;;;;5031016;28;20210;-60
2021/03/13 04:03:50;;;;;;;2.20;0.90;;;8.90;99.90;;;;;;5030600;28;20218;-61
2021/03/13 04:06:17;;;;;;;2.40;1.10;;;9.00;99.90;;;;;;5031061;28;20218;-61
2021/03/13 04:08:46;;;;;;;3.07;1.00;;;9.10;99.90;;;;;;5030867;28;20222;-61
2021/03/13 04:11:13;;;;;;;2.07;0.80;;;9.10;99.90;;;;;;5031049;28;20202;-61
2021/03/13 04:13:41;;;;;;;1.87;0.67;;;8.80;99.90;;;;;;5030612;28;20209;-61
2021/03/13 04:16:08;;;;;;;3.07;0.90;;;8.80;99.90;;;;;;5030763;28;20206;-60
2021/03/13 04:18:34;;;;;;;3.23;0.90;;;8.90;99.90;;;;;;5030815;28;20599;-61
2021/03/13 04:21:00;;;;;;;3.03;0.83;;;9.10;99.90;;;;;;5030993;28;20344;-61
2021/03/13 04:23:27;;;;;;;3.57;0.70;;;9.10;99.90;;;;;;5030402;28;20237;-60
2021/03/13 04:25:55;;;;;;;4.43;0.70;;;9.00;99.90;;;;;;5030701;28;20229;-61
2021/03/13 04:28:23;;;;;;;3.13;0.90;;;9.10;99.90;;;;;;5030603;28;20217;-61
2021/03/13 04:30:50;;;;;;;2.57;0.63;;;9.10;99.90;;;;;;5030882;28;20256;-60
2021/03/13 04:33:18;;;;;;;1.47;0.43;;;9.10;99.90;;;;;;5030804;28;20211;-61
2021/03/13 04:35:46;;;;;;;2.73;0.83;;;9.30;99.90;;;;;;5030878;28;20214;-61
2021/03/13 04:38:14;;;;;;;2.00;0.57;;;9.40;99.90;;;;;;5030525;28;20212;-60
2021/03/13 04:40:41;;;;;;;1.27;0.90;;;9.50;99.90;;;;;;5030833;28;20206;-61
2021/03/13 04:43:09;;;;;;;2.43;0.83;;;9.50;99.90;;;;;;5030630;28;20252;-61
2021/03/13 04:45:36;;;;;;;3.93;0.90;;;9.50;99.90;;;;;;5030378;28;20234;-61
2021/03/13 04:48:03;;;;;;;2.87;0.60;;;9.50;99.90;;;;;;5030808;28;20203;-61
2021/03/13 04:50:29;;;;;;;1.60;0.90;;;9.50;99.90;;;;;;5032326;28;20226;-60
2021/03/13 04:52:56;;;;;;;1.37;0.77;;;9.50;99.90;;;;;;5034221;28;20663;-61
2021/03/13 04:55:22;;;;;;;2.30;0.70;;;9.40;99.90;;;;;;5034236;28;20674;-61
2021/03/13 04:57:49;;;;;;;3.23;0.90;;;9.30;99.90;;;;;;5034202;28;20265;-61
2021/03/13 05:00:17;;;;;;;4.07;0.80;;;9.30;99.90;;;;;;5034348;28;20791;-61
2021/03/13 05:02:44;;;;;;;1.50;0.70;;;9.40;99.90;;;;;;5034554;28;20666;-62
2021/03/13 05:05:11;;;;;;;2.27;0.60;;;9.30;99.90;;;;;;5034481;28;20234;-62
2021/03/13 05:07:37;;;;;;;2.10;0.63;;;9.10;99.90;;;;;;5034417;28;20573;-62
2021/03/13 05:10:05;;;;;;;2.87;0.57;;;9.10;99.90;;;;;;5034588;28;20226;-62
2021/03/13 05:12:31;;;;;;;1.00;0.47;;;9.20;99.90;;;;;;5034265;28;20677;-61
2021/03/13 05:14:57;;;;;;;1.77;0.70;;;9.20;99.90;;;;;;5033995;28;20697;-61
2021/03/13 05:17:23;;;;;;;2.03;0.70;;;9.10;99.90;;;;;;5034078;28;20293;-61
2021/03/13 05:19:50;;;;;;;3.40;0.80;;;9.00;99.90;;;;;;5033848;28;20717;-61
2021/03/13 05:22:17;;;;;;;3.23;0.77;;;8.90;99.90;;;;;;5033771;28;20693;-61
2021/03/13 05:24:43;;;;;;;2.23;0.70;;;8.80;99.90;;;;;;5033656;28;20229;-61
2021/03/13 05:27:09;;;;;;;2.33;0.77;;;8.90;99.90;;;;;;5033990;28;20206;-61
2021/03/13 05:29:35;;;;;;;2.83;0.60;;;8.90;99.90;;;;;;5033908;28;20233;-62
2021/03/13 05:32:02;;;;;;;0.83;0.40;;;8.90;99.90;;;;;;5034142;28;20209;-62
2021/03/13 05:34:28;;;;;;;5.00;0.93;;;8.70;99.90;;;;;;5033990;28;20202;-61
2021/03/13 05:36:55;;;;;;;0.87;0.60;;;8.80;99.90;;;;;;5034266;28;20286;-61
2021/03/13 05:39:21;;;;;;;1.63;0.70;;;8.60;99.90;;;;;;5033931;28;20230;-59
2021/03/13 05:41:48;;;;;;;3.03;1.53;;;8.50;99.90;;;;;;5033679;28;20210;-60
2021/03/13 05:44:14;;;;;;;3.00;1.00;;;8.60;99.90;;;;;;5033621;28;20230;-60
2021/03/13 05:46:44;;;;;;;5.00;0.73;;;8.70;99.90;;;;;;5033804;28;20233;-60
2021/03/13 05:49:11;;;;;;;2.83;0.87;;;8.70;99.90;;;;;;5033676;28;20585;-60
2021/03/13 05:51:39;;;;;;;1.13;0.80;;;8.90;99.90;;;;;;5033583;28;20705;-62
2021/03/13 05:54:07;;;;;;;3.53;1.07;;;9.10;99.90;;;;;;5033434;28;20202;-60
2021/03/13 05:56:34;;;;;;;0.70;0.50;;;9.20;99.90;;;;;;5034191;28;20337;-61
2021/03/13 05:59:01;;;;;;;2.70;0.70;;;9.40;99.90;;;;;;5033381;28;20613;-60
2021/03/13 06:01:29;;;;;;;1.93;0.80;;;9.50;99.90;;;;;;5033365;28;20206;-61
2021/03/13 06:03:56;;;;;;;3.00;1.63;;;9.50;99.90;;;;;;5033430;28;20245;-60
2021/03/13 06:06:24;;;;;;;4.17;1.30;;;9.50;99.90;;;;;;5033604;28;20206;-60
2021/03/13 06:08:51;;;;;;;4.60;2.07;;;9.50;99.90;;;;;;5032879;28;20238;-61
2021/03/13 06:11:19;;;;;;;2.53;1.37;;;9.60;99.90;;;;;;5033264;28;20205;-60
2021/03/13 06:13:46;;;;;;;3.03;1.33;;;9.50;99.90;;;;;;5033066;28;20206;-61
2021/03/13 06:16:12;;;;;;;4.00;1.10;;;9.70;99.90;;;;;;5032962;28;20203;-61
2021/03/13 06:18:52;;;;;;;2.60;1.00;;;9.90;99.90;;;;;;5033474;28;20226;-61
2021/03/13 06:21:23;;;;;;;1.33;0.73;;;9.80;99.90;;;;;;5034137;28;20229;-61
2021/03/13 06:23:55;;;;;;;0.80;0.20;;;9.90;99.80;;;;;;5033238;28;20218;-60
2021/03/13 06:26:23;;;;;;;1.23;0.73;;;10.00;99.00;;;;;;5033687;28;20210;-60
2021/03/13 06:28:49;;;;;;;2.97;0.80;;;10.20;99.00;;;;;;5033422;28;20237;-62
2021/03/13 06:31:22;;;;;;;4.30;0.90;;;10.10;98.40;;;;;;5033629;28;20213;-60
2021/03/13 06:33:48;;;;;;;1.23;0.70;;;10.10;98.40;;;;;;5033422;28;20256;-60
2021/03/13 06:36:21;;;;;;;2.47;1.07;;;10.30;98.30;;;;;;5033408;28;20221;-60
2021/03/13 06:38:47;;;;;;;2.00;1.00;;;10.30;98.20;;;;;;5032888;28;20453;-62
2021/03/13 06:41:16;;;;;;;2.93;0.97;;;10.60;97.70;;;;;;5033191;28;20434;-60
2021/03/13 06:43:44;;;;;;;4.67;0.90;;;10.90;97.20;;;;;;5032851;28;20207;-60
2021/03/13 06:46:12;;;;;;;6.17;1.37;;;11.40;96.70;;;;;;5032796;28;20213;-60
2021/03/13 06:48:44;;;;;;;3.73;1.27;;;12.20;95.50;;;;;;5032377;28;20290;-60
2021/03/13 06:51:26;;;;;;;3.00;1.00;;;13.10;94.40;;;;;;5032619;28;20209;-61
2021/03/13 06:54:00;;;;;;;2.57;0.80;;;13.90;92.70;;;;;;5032519;28;20686;-61
2021/03/13 06:56:27;;;;;;;4.57;1.17;;;14.20;91.30;;;;;;5032575;28;20218;-61
2021/03/13 06:58:54;;;;;;;1.93;0.80;;;14.50;90.80;;;;;;5032413;28;20230;-62
2021/03/13 07:01:26;;;;;;;6.93;3.13;;;14.70;90.00;;;;;;5032919;28;20344;-60
2021/03/13 07:03:52;;;;;;;4.03;1.50;;;14.90;89.50;;;;;;5032992;28;20661;-60
2021/03/13 07:06:20;;;;;;;5.60;1.33;;;14.80;88.70;;;;;;5033683;28;20202;-61
2021/03/13 07:08:47;;;;;;;3.90;1.07;;;14.70;87.90;;;;;;5032926;28;20227;-61
2021/03/13 07:11:15;;;;;;;4.27;1.10;;;14.60;88.20;;;;;;5033465;28;20233;-60
2021/03/13 07:13:43;;;;;;;2.80;0.90;;;14.00;89.10;;;;;;5032165;28;20686;-60
2021/03/13 07:16:28;;;;;;;2.60;1.30;;;13.80;89.90;;;;;;5033175;28;20210;-61
2021/03/13 07:18:56;;;;;;;2.80;0.90;;;13.50;90.30;;;;;;5033780;28;20230;-61
2021/03/13 07:21:23;;;;;;;1.97;1.20;;;13.70;90.40;;;;;;5034864;28;20206;-61
2021/03/13 07:23:54;;;;;;;4.15;1.38;;;15.00;88.60;;;;;;5032081;28;20480;-62
2021/03/13 07:26:23;;;;;;;4.80;1.53;;;16.00;83.80;;;;;;5034699;28;20207;-66
2021/03/13 07:28:50;;;;;;;3.50;1.03;;;16.50;81.60;;;;;;5031402;28;20269;-63
2021/03/13 07:31:18;;;;;;;1.53;0.83;;;16.50;80.20;;;;;;5031056;28;20206;-63
2021/03/13 07:33:48;;;;;;;1.90;0.73;;;16.20;80.40;;;;;;5031224;28;20256;-62
2021/03/13 07:36:17;;;;;;;2.37;0.83;;;16.30;79.90;;;;;;5030690;28;20674;-63
2021/03/13 07:38:44;;;;;;;2.40;0.87;;;17.00;78.50;;;;;;5031077;28;20230;-64
2021/03/13 07:41:15;;;;;;;2.57;0.77;;;17.70;75.50;;;;;;5031108;28;20217;-65
2021/03/13 07:43:42;;;;;;;3.17;1.17;;;18.10;74.50;;;;;;5031240;28;20214;-64
2021/03/13 07:46:09;;;;;;;1.73;0.60;;;18.90;72.30;;;;;;5030665;28;20401;-64
2021/03/13 07:48:36;;;;;;;2.40;1.10;;;19.00;69.70;;;;;;5029559;28;20230;-62
2021/03/13 07:51:04;;;;;;;2.23;1.10;;;19.30;68.70;;;;;;5030025;28;20590;-62
2021/03/13 07:53:32;;;;;;;1.33;0.63;;;19.60;67.30;;;;;;5029946;28;20284;-62
2021/03/13 07:55:59;;;;;;;1.87;1.00;;;19.50;66.40;;;;;;5029836;28;20206;-61
2021/03/13 07:58:25;;;;;;;1.73;0.70;;;18.80;66.90;;;;;;5029683;28;20202;-64
2021/03/13 08:00:53;;;;;;;3.37;1.03;;;18.10;67.90;;;;;;5029944;28;20247;-63
2021/03/13 08:03:42;;;;;;;4.03;0.80;;;17.60;69.50;;;;;;5029762;28;20300;-63
2021/03/13 08:06:10;;;;;;;3.90;1.27;;;16.70;70.70;;;;;;5030257;28;20261;-63
2021/03/13 08:08:38;;;;;;;1.33;0.60;;;15.90;72.80;;;;;;5030010;28;20568;-64
2021/03/13 08:11:05;;;;;;;3.63;1.43;;;15.30;73.70;;;;;;5030230;28;20225;-63
2021/03/13 08:13:55;;;;;;;4.10;0.90;;;14.70;75.40;;;;;;5029698;28;20210;-61
2021/03/13 08:16:45;;;;;;;3.03;0.70;;;14.30;76.20;;;;;;5030917;28;20626;-62
2021/03/13 08:19:44;;;;;;;3.33;0.67;;;14.10;76.80;;;;;;5015465;28;20233;-62
2021/03/13 08:22:14;;;;;;;1.83;0.83;;;14.00;77.00;;;;;;5031178;28;21366;-61
2021/03/13 08:24:42;;;;;;;2.07;0.70;;;14.10;77.50;;;;;;5032765;28;20230;-61
2021/03/13 08:27:10;;;;;;;2.20;0.60;;;13.90;77.60;;;;;;5034987;28;20221;-61
2021/03/13 08:29:54;;;;;;;1.10;1.00;;;13.70;78.00;;;;;;5034699;28;20226;-62
2021/03/13 08:33:03;;;;;;;2.97;0.40;;;13.50;78.30;;;;;;5034720;28;20678;-62
2021/03/13 08:35:47;;;;;;;1.30;0.90;;;13.30;77.70;;;;;;5034963;28;20202;-62
2021/03/13 08:38:17;;;;;;;0.47;0.40;;;13.20;78.90;;;;;;5034358;28;20202;-62
2021/03/13 08:40:47;;;;;;;1.53;0.40;;;13.00;79.10;;;;;;5034545;28;20210;-61
2021/03/13 08:43:32;;;;;;;2.27;0.63;;;13.10;79.00;;;;;;5034724;28;20203;-61
2021/03/13 08:45:59;;;;;;;3.23;0.70;;;13.40;78.50;;;;;;5034334;28;20229;-62
2021/03/13 08:48:54;;;;;;;1.10;0.50;;;13.40;77.50;;;;;;5034273;28;20217;-63
2021/03/13 08:51:20;;;;;;;1.20;0.47;;;13.70;77.20;;;;;;5034888;28;20240;-61
2021/03/13 08:53:47;;;;;;;2.73;0.50;;;13.70;76.90;;;;;;5034216;28;20712;-61
2021/03/13 08:56:40;;;;;;;2.07;0.40;;;13.60;76.80;;;;;;5034231;28;20221;-62
2021/03/13 08:59:09;;;;;;;0.90;0.50;;;13.60;75.90;;;;;;5058909;23;20256;-63
2021/03/13 09:01:36;;;;;;;1.37;0.60;;;13.70;75.60;;;;;;5094698;28;20200;-62
2021/03/13 09:04:02;;;;;;;2.90;1.53;;;13.60;75.20;;;;;;5095177;28;20204;-62
2021/03/13 09:06:28;;;;;;;1.70;0.60;;;13.40;75.10;;;;;;5094827;28;20204;-62
2021/03/13 09:09:09;;;;;;;2.27;0.60;;;13.10;75.40;;;;;;5094643;28;20282;-60
2021/03/13 09:11:36;;;;;;;2.67;0.83;;;12.90;76.00;;;;;;5095304;28;20207;-60
2021/03/13 09:14:04;;;;;;;1.57;0.70;;;12.90;75.80;;;;;;5094985;28;20242;-61
2021/03/13 09:16:35;;;;;;;4.63;0.60;;;13.00;76.00;;;;;;5095437;28;20493;-62
2021/03/13 09:19:02;;;;;;;2.67;0.67;;;12.80;75.70;;;;;;5095053;28;20220;-61
2021/03/13 09:21:41;;;;;;;3.67;0.67;;;12.60;75.80;;;;;;5094739;28;20208;-60
2021/03/13 09:24:10;;;;;;;5.97;0.83;;;12.60;76.40;;;;;;5094401;28;20219;-61
2021/03/13 09:26:36;;;;;;;4.50;0.80;;;12.60;76.60;;;;;;5094310;28;20256;-61
2021/03/13 09:29:03;;;;;;;1.23;0.50;;;12.60;76.30;;;;;;5094585;28;20614;-61
2021/03/13 09:31:30;;;;;;;1.90;0.63;;;12.70;76.30;;;;;;5094443;28;20242;-62
2021/03/13 09:34:18;;;;;;;1.40;0.40;;;12.90;75.60;;;;;;5094369;28;20253;-61
2021/03/13 09:36:46;;;;;;;3.27;1.10;;;13.10;75.30;;;;;;5093401;28;20276;-61
2021/03/13 09:39:19;;;;;;;3.50;0.83;;;13.20;75.20;;;;;;5093823;28;20298;-61
2021/03/13 09:42:08;;;;;;;1.00;0.40;;;13.40;75.20;;;;;;5094465;28;20208;-62
2021/03/13 09:44:37;;;;;;;1.90;0.70;;;13.40;74.20;;;;;;5094380;28;20703;-59
2021/03/13 09:47:28;;;;;;;1.37;0.70;;;13.30;73.80;;;;;;5093740;28;20208;-62
2021/03/13 09:49:56;;;;;;;2.10;0.40;;;13.30;74.20;;;;;;5094361;28;20329;-62
2021/03/13 09:52:28;;;;;;;1.50;0.50;;;13.50;74.00;;;;;;5093921;28;20660;-62
2021/03/13 09:55:04;;;;;;;1.83;0.57;;;13.50;73.70;;;;;;5093237;28;20204;-62
2021/03/13 09:57:30;;;;;;;2.47;0.85;;;13.50;74.00;;;;;;5092485;28;20933;-61
2021/03/13 09:59:57;;;;;;;2.40;0.67;;;13.50;74.30;;;;;;5093476;28;20232;-62
2021/03/13 10:02:24;;;;;;;2.27;0.50;;;13.50;74.00;;;;;;5093237;28;20212;-62
2021/03/13 10:04:52;;;;;;;1.10;0.40;;;13.40;74.20;;;;;;5092831;28;20228;-62
2021/03/13 10:07:19;;;;;;;1.73;0.50;;;13.40;74.40;;;;;;5093124;28;20219;-62
2021/03/13 10:09:54;;;;;;;2.60;0.93;;;13.30;74.50;;;;;;5092618;28;20363;-61
2021/03/13 10:12:30;;;;;;;1.63;0.50;;;13.40;74.90;;;;;;5092503;28;20295;-61
2021/03/13 10:14:57;;;;;;;3.07;0.67;;;13.30;74.50;;;;;;5092727;28;20199;-61
2021/03/13 10:17:24;;;;;;;2.20;0.67;;;13.20;75.10;;;;;;5092644;28;20215;-62
2021/03/13 10:19:50;;;;;;;2.43;1.10;;;13.30;75.40;;;;;;5092655;28;20231;-62
2021/03/13 10:22:21;;;;;;;1.63;0.83;;;13.20;75.20;;;;;;5092585;28;20208;-62
2021/03/13 10:24:49;;;;;;;1.50;0.77;;;13.00;75.60;;;;;;5091929;28;20292;-62
2021/03/13 10:27:25;;;;;;;2.13;0.97;;;13.00;77.10;;;;;;5092365;28;20204;-62
2021/03/13 10:29:57;;;;;;;1.70;0.73;;;13.10;76.40;;;;;;5092187;28;20231;-61
2021/03/13 10:32:28;;;;;;;1.10;0.73;;;13.00;75.90;;;;;;5091998;28;20572;-61
2021/03/13 10:35:12;;;;;;;1.07;0.60;;;13.10;76.30;;;;;;5092202;28;20205;-61
2021/03/13 10:37:40;;;;;;;3.33;0.80;;;13.00;76.50;;;;;;5092210;28;20199;-61
2021/03/13 10:40:10;;;;;;;2.03;0.77;;;13.20;76.20;;;;;;5092155;28;20270;-61
2021/03/13 10:42:37;;;;;;;1.97;0.60;;;13.40;76.10;;;;;;5092058;28;20257;-61
2021/03/13 10:45:15;;;;;;;2.53;0.60;;;13.60;75.80;;;;;;5091784;28;20228;-61
2021/03/13 10:47:41;;;;;;;1.87;0.67;;;13.70;75.90;;;;;;5091195;28;20208;-61
2021/03/13 10:50:09;;;;;;;1.93;0.70;;;13.60;75.00;;;;;;5092013;28;20220;-61
2021/03/13 10:52:35;;;;;;;3.97;1.50;;;13.60;75.50;;;;;;5091793;28;20675;-60
2021/03/13 10:55:02;;;;;;;2.63;0.83;;;13.70;76.00;;;;;;5092098;28;20200;-60
2021/03/13 10:57:28;;;;;;;1.70;0.90;;;13.80;75.70;;;;;;5092055;28;20587;-60
2021/03/13 10:59:55;;;;;;;1.73;0.80;;;13.70;75.40;;;;;;5091605;28;20241;-61
2021/03/13 11:02:21;;;;;;;2.37;0.67;;;13.60;75.60;;;;;;5091659;28;20210;-61
2021/03/13 11:04:47;;;;;;;3.17;0.70;;;13.40;75.90;;;;;;5091632;28;20219;-61
2021/03/13 11:07:15;;;;;;;2.17;1.00;;;13.30;76.20;;;;;;5091894;28;20287;-62
2021/03/13 11:09:45;;;;;;;4.00;0.70;;;13.40;76.40;;;;;;5091758;28;20235;-61
2021/03/13 11:12:11;;;;;;;1.93;0.50;;;13.30;76.00;;;;;;5092053;28;20249;-60
2021/03/13 11:14:38;;;;;;;1.60;0.50;;;13.40;76.50;;;;;;5091853;28;20203;-60
2021/03/13 11:17:05;;;;;;;1.03;0.57;;;13.30;76.00;;;;;;5091866;28;20728;-60
2021/03/13 11:19:32;;;;;;;2.50;0.70;;;13.30;76.80;;;;;;5091530;28;20612;-62
2021/03/13 11:21:58;;;;;;;2.60;0.43;;;13.30;75.50;;;;;;5091569;28;20211;-62
2021/03/13 11:24:25;;;;;;;1.93;0.60;;;13.20;75.10;;;;;;5091123;28;20699;-60
2021/03/13 11:26:52;;;;;;;0.67;0.40;;;13.30;75.40;;;;;;5091667;28;20222;-61
2021/03/13 11:29:18;;;;;;;0.90;0.40;;;13.30;76.00;;;;;;5091551;28;20239;-62
2021/03/13 11:31:45;;;;;;;2.40;0.37;;;13.30;75.50;;;;;;5091352;28;20211;-61
2021/03/13 11:34:12;;;;;;;2.10;0.33;;;13.30;74.10;;;;;;5091120;28;20253;-60
2021/03/13 11:36:38;;;;;;;2.93;0.50;;;13.30;74.60;;;;;;5091506;28;20208;-61
2021/03/13 11:39:06;;;;;;;0.50;0.20;;;13.40;75.20;;;;;;5091216;28;20711;-62
2021/03/13 11:41:33;;;;;;;0.60;0.30;;;13.40;74.50;;;;;;5091458;28;20200;-61
2021/03/13 11:43:59;;;;;;;1.77;0.60;;;13.40;74.40;;;;;;5091011;28;20683;-62
2021/03/13 11:46:25;;;;;;;3.30;0.50;;;13.40;74.20;;;;;;5091453;28;20208;-62
2021/03/13 11:48:53;;;;;;;1.50;0.40;;;13.40;74.80;;;;;;5091003;28;20291;-62
2021/03/13 11:51:20;;;;;;;0.63;0.50;;;13.60;74.60;;;;;;5091081;28;20574;-61
2021/03/13 11:53:46;;;;;;;2.43;0.30;;;13.60;74.40;;;;;;5091170;28;20204;-61
2021/03/13 11:56:12;;;;;;;2.10;0.83;;;13.60;74.40;;;;;;5091011;28;20263;-61
2021/03/13 11:58:38;;;;;;;4.43;2.03;;;13.70;75.30;;;;;;5090909;28;20212;-60
2021/03/13 12:01:05;;;;;;;1.40;0.67;;;13.60;75.30;;;;;;5095367;28;20235;-61
2021/03/13 12:03:43;;;;;;;5.70;0.60;;;13.50;75.30;;;;;;5095337;28;20208;-62
2021/03/13 12:06:10;;;;;;;1.70;0.53;;;13.60;74.80;;;;;;5095239;28;20606;-60
2021/03/13 12:08:37;;;;;;;2.60;0.70;;;13.50;74.40;;;;;;5095101;28;20564;-61
2021/03/13 12:11:04;;;;;;;1.03;0.43;;;13.30;75.40;;;;;;5095092;28;20255;-61
2021/03/13 12:13:30;;;;;;;2.50;0.60;;;13.30;75.70;;;;;;5095474;28;20210;-62
2021/03/13 12:15:56;;;;;;;2.00;0.50;;;13.30;75.80;;;;;;5095403;28;20568;-62
2021/03/13 12:18:22;;;;;;;1.27;0.77;;;13.60;75.40;;;;;;5094846;28;20249;-62
2021/03/13 12:20:48;;;;;;;2.50;0.67;;;13.80;74.80;;;;;;5095122;28;20243;-63
2021/03/13 12:23:15;;;;;;;0.50;0.27;;;13.70;74.40;;;;;;5095010;28;20208;-61
2021/03/13 12:25:42;;;;;;;1.57;0.40;;;13.60;75.30;;;;;;5094754;28;20216;-63
2021/03/13 12:28:08;;;;;;;1.43;0.47;;;13.60;76.00;;;;;;5094741;28;20211;-60
2021/03/13 12:30:34;;;;;;;1.30;0.60;;;13.50;76.80;;;;;;5095068;28;20220;-61
2021/03/13 12:33:00;;;;;;;0.77;0.27;;;13.40;77.30;;;;;;5094861;28;20699;-62
2021/03/13 12:35:26;;;;;;;1.53;0.50;;;13.60;77.40;;;;;;5095058;28;20652;-61
2021/03/13 12:37:53;;;;;;;2.43;0.33;;;13.70;76.90;;;;;;5094909;28;20253;-61
2021/03/13 12:40:19;;;;;;;0.50;0.30;;;13.90;76.90;;;;;;5094470;28;20637;-61
2021/03/13 12:42:46;;;;;;;2.00;0.30;;;14.10;77.10;;;;;;5094731;28;20227;-61
2021/03/13 12:45:13;;;;;;;0.57;0.30;;;14.10;77.30;;;;;;5094307;28;20273;-61
2021/03/13 12:47:39;;;;;;;0.83;0.53;;;14.00;77.90;;;;;;5094223;28;20679;-61
2021/03/13 12:50:07;;;;;;;0.63;0.30;;;13.90;77.90;;;;;;5094393;28;20220;-62
2021/03/13 12:52:34;;;;;;;0.47;0.33;;;13.70;79.60;;;;;;5094381;28;20281;-63
2021/03/13 12:55:00;;;;;;;2.30;0.50;;;13.50;80.50;;;;;;5094195;28;20622;-62
2021/03/13 12:57:26;;;;;;;1.10;0.40;;;13.40;81.10;;;;;;5094461;28;20318;-61
2021/03/13 12:59:54;;;;;;;4.67;0.43;;;13.30;82.00;;;;;;5093855;28;20236;-62
2021/03/13 13:02:20;;;;;;;1.17;0.43;;;13.20;82.40;;;;;;5094350;28;20257;-62